Lydia Marie — WDC2894 — position and weather

sailwx.info

Track history (hours):
 
Tides and Currents Weather Stations Pressure Air Temp Water Temp Dewpoint Dewpoint Depression Visibility Wind Speed Wind Dir Waves Ship Positions

Lydia Marie

Owner: Western Rivers Boat Management, Inc., Paducah, KY. More information available from US FCC via Universal Licensing System and Coast Guard Vessel Documentation Center.

Last reported at 2018-May-13 15:12 UTC. Time now 2018-Jun-22 15:02 UTC.
Position N 39°09' W 090°43'.
Warning: this ship's position is 39 days out of date.

Length 36 m; draft 3 m.

Type: Tow > 200 m length. MMSI: 366999220.

Date/timePositionNaut miles runAvg speedWind from/ knotsBaromVisibWave heightAir tempDewpointWater temp
2018-May-13 15:12N 39°09' W 090°43'1 4.2
2018-May-13 14:59N 39°08' W 090°42'3 1.9
2018-May-13 13:12N 39°05' W 090°41'1 4.5
2018-May-13 12:58N 39°04' W 090°42'2 3.8
2018-May-13 12:30N 39°02' W 090°43'2 4.3
2018-May-13 12:00N 39°00' W 090°41'0 0.4
2018-May-13 11:30N 39°00' W 090°41'0 0.2
2018-May-13 11:00N 39°00' W 090°41'0 0.7
2018-May-13 10:30N 38°60' W 090°41'2 3.9
2018-May-13 10:00N 38°58' W 090°40'1 1.1
2018-May-13 09:30N 38°57' W 090°40'0 0.0
2018-May-13 09:00N 38°57' W 090°40'0 0.0
2018-May-13 08:28N 38°57' W 090°40'0 0.1
2018-May-13 08:00N 38°57' W 090°40'2 3.9
2018-May-13 07:30N 38°55' W 090°40'2 4.2
2018-May-13 07:00N 38°54' W 090°38'2 4.2
2018-May-13 06:30N 38°52' W 090°36'2 4.2
2018-May-13 06:00N 38°52' W 090°34'2 4.0
2018-May-13 05:30N 38°53' W 090°32'2 4.2
2018-May-13 05:00N 38°55' W 090°30'2 4.1
2018-May-13 04:30N 38°57' W 090°29'1 1.4
2018-May-13 04:00N 38°57' W 090°28'0 0.0
2018-May-13 03:29N 38°57' W 090°28'0 0.0
2018-May-13 03:00N 38°57' W 090°28'0 0.0
2018-May-13 02:30N 38°57' W 090°28'1 1.0
2018-May-13 02:00N 38°57' W 090°27'2 4.5
2018-May-13 01:30N 38°58' W 090°24'2 4.8
2018-May-13 01:00N 38°57' W 090°22'2 4.8
2018-May-13 00:30N 38°56' W 090°19'2 4.6
2018-May-13 00:00N 38°55' W 090°16'2 4.2
2018-May-12 23:30N 38°55' W 090°14'1 2.3
2018-May-12 23:00N 38°54' W 090°12'0 0.0
2018-May-12 22:30N 38°54' W 090°12'1 2.2
2018-May-12 22:00N 38°53' W 090°11'2 3.9
2018-May-12 21:29N 38°52' W 090°09'0 0.8
2018-May-12 21:00N 38°52' W 090°09'2 3.7
2018-May-12 20:30N 38°51' W 090°07'2 4.0
2018-May-12 20:00N 38°49' W 090°07'0 0.1
2018-May-12 19:30N 38°49' W 090°07'0 0.0
2018-May-12 19:00N 38°49' W 090°07'0 0.0
2018-May-12 18:30N 38°49' W 090°07'0 0.0
2018-May-12 18:00N 38°49' W 090°07'0 0.0
2018-May-12 17:30N 38°49' W 090°07'0 0.0
2018-May-12 17:00N 38°49' W 090°07'1 2.2
2018-May-12 16:30N 38°48' W 090°07'3 6.2
2018-May-12 16:00N 38°45' W 090°09'2 4.3
2018-May-12 15:27N 38°43' W 090°10'1 2.7
2018-May-12 14:59N 38°42' W 090°11'1 2.8
2018-May-12 14:30N 38°41' W 090°11'2 3.5
2018-May-12 14:00N 38°39' W 090°11'1 2.9
2018-May-12 13:29N 38°37' W 090°11'1 2.1
2018-May-12 12:57N 38°36' W 090°11'1 0.5
2018-May-12 10:43N 38°35' W 090°12'0 0.0
2018-May-12 10:30N 38°35' W 090°12'0 0.3
2018-May-12 09:59N 38°36' W 090°12'0 0.1
2018-May-12 09:25N 38°36' W 090°12'1 1.9
2018-May-12 09:00N 38°36' W 090°11'4 8.7
2018-May-12 08:30N 38°41' W 090°11'2 2.8
2018-May-12 07:57N 38°42' W 090°11'0 0.6
2018-May-12 07:30N 38°42' W 090°11'1 1.0
2018-May-12 07:00N 38°43' W 090°10'1 1.9
2018-May-12 06:30N 38°44' W 090°10'1 2.1
2018-May-12 06:00N 38°45' W 090°09'1 1.1
2018-May-12 05:30N 38°45' W 090°09'0 0.5
2018-May-12 05:00N 38°45' W 090°09'0 0.2
2018-May-12 04:21N 38°45' W 090°09'0 1.4
2018-May-12 04:00N 38°46' W 090°08'1 1.8
2018-May-12 03:30N 38°47' W 090°08'0 0.0
2018-May-12 03:00N 38°47' W 090°08'1 2.1
2018-May-12 02:30N 38°48' W 090°07'4 7.1
2018-May-12 02:00N 38°51' W 090°07'2 3.9
2018-May-12 01:30N 38°52' W 090°09'2 3.5
2018-May-12 01:00N 38°53' W 090°11'3 7.0
2018-May-12 00:30N 38°55' W 090°15'4 7.3
2018-May-12 00:00N 38°56' W 090°19'4 7.7
2018-May-11 23:30N 38°58' W 090°23'4 7.3
2018-May-11 23:00N 38°57' W 090°28'4 7.3
2018-May-11 22:30N 38°54' W 090°31'4 7.1
2018-May-11 22:00N 38°52' W 090°35'3 6.5
2018-May-11 21:30N 38°54' W 090°38'4 7.2
2018-May-11 21:00N 38°57' W 090°40'3 6.0
2018-May-11 20:30N 38°60' W 090°41'0 0.5
2018-May-11 20:00N 39°00' W 090°41'0 0.2
2018-May-11 19:30N 39°00' W 090°41'0 0.1
2018-May-11 19:00N 39°00' W 090°41'0 0.6
2018-May-11 18:30N 39°01' W 090°42'0 0.0
2018-May-11 18:00N 39°01' W 090°42'0 0.2
2018-May-11 17:30N 39°01' W 090°42'2 4.1
2018-May-11 17:00N 39°03' W 090°43'4 5.1
2018-May-11 16:16N 39°06' W 090°41'2 7.2
2018-May-11 16:00N 39°08' W 090°42'  
Track history (hours):
 
Tides and Currents Weather Stations Pressure Air Temp Water Temp Dewpoint Dewpoint Depression Visibility Wind Speed Wind Dir Waves Ship Positions

Lydia Marie

Owner: Western Rivers Boat Management, Inc., Paducah, KY. More information available from US FCC via Universal Licensing System and Coast Guard Vessel Documentation Center.

Last reported at 2018-May-13 15:12 UTC. Time now 2018-Jun-22 15:02 UTC.
Position N 39°09' W 090°43'.
Warning: this ship's position is 39 days out of date.

Length 36 m; draft 3 m.

Type: Tow > 200 m length. MMSI: 366999220.

Date/timePositionNaut miles runAvg speedWind from/ knotsBaromVisibWave heightAir tempDewpointWater temp
2018-May-13 15:12N 39°09' W 090°43'1 4.2
2018-May-13 14:59N 39°08' W 090°42'3 1.9
2018-May-13 13:12N 39°05' W 090°41'1 4.5
2018-May-13 12:58N 39°04' W 090°42'2 3.8
2018-May-13 12:30N 39°02' W 090°43'2 4.3
2018-May-13 12:00N 39°00' W 090°41'0 0.4
2018-May-13 11:30N 39°00' W 090°41'0 0.2
2018-May-13 11:00N 39°00' W 090°41'0 0.7
2018-May-13 10:30N 38°60' W 090°41'2 3.9
2018-May-13 10:00N 38°58' W 090°40'1 1.1
2018-May-13 09:30N 38°57' W 090°40'0 0.0
2018-May-13 09:00N 38°57' W 090°40'0 0.0
2018-May-13 08:28N 38°57' W 090°40'0 0.1
2018-May-13 08:00N 38°57' W 090°40'2 3.9
2018-May-13 07:30N 38°55' W 090°40'2 4.2
2018-May-13 07:00N 38°54' W 090°38'2 4.2
2018-May-13 06:30N 38°52' W 090°36'2 4.2
2018-May-13 06:00N 38°52' W 090°34'2 4.0
2018-May-13 05:30N 38°53' W 090°32'2 4.2
2018-May-13 05:00N 38°55' W 090°30'2 4.1
2018-May-13 04:30N 38°57' W 090°29'1 1.4
2018-May-13 04:00N 38°57' W 090°28'0 0.0
2018-May-13 03:29N 38°57' W 090°28'0 0.0
2018-May-13 03:00N 38°57' W 090°28'0 0.0
2018-May-13 02:30N 38°57' W 090°28'1 1.0
2018-May-13 02:00N 38°57' W 090°27'2 4.5
2018-May-13 01:30N 38°58' W 090°24'2 4.8
2018-May-13 01:00N 38°57' W 090°22'2 4.8
2018-May-13 00:30N 38°56' W 090°19'2 4.6
2018-May-13 00:00N 38°55' W 090°16'2 4.2
2018-May-12 23:30N 38°55' W 090°14'1 2.3
2018-May-12 23:00N 38°54' W 090°12'0 0.0
2018-May-12 22:30N 38°54' W 090°12'1 2.2
2018-May-12 22:00N 38°53' W 090°11'2 3.9
2018-May-12 21:29N 38°52' W 090°09'0 0.8
2018-May-12 21:00N 38°52' W 090°09'2 3.7
2018-May-12 20:30N 38°51' W 090°07'2 4.0
2018-May-12 20:00N 38°49' W 090°07'0 0.1
2018-May-12 19:30N 38°49' W 090°07'0 0.0
2018-May-12 19:00N 38°49' W 090°07'0 0.0
2018-May-12 18:30N 38°49' W 090°07'0 0.0
2018-May-12 18:00N 38°49' W 090°07'0 0.0
2018-May-12 17:30N 38°49' W 090°07'0 0.0
2018-May-12 17:00N 38°49' W 090°07'1 2.2
2018-May-12 16:30N 38°48' W 090°07'3 6.2
2018-May-12 16:00N 38°45' W 090°09'2 4.3
2018-May-12 15:27N 38°43' W 090°10'1 2.7
2018-May-12 14:59N 38°42' W 090°11'1 2.8
2018-May-12 14:30N 38°41' W 090°11'2 3.5
2018-May-12 14:00N 38°39' W 090°11'1 2.9
2018-May-12 13:29N 38°37' W 090°11'1 2.1
2018-May-12 12:57N 38°36' W 090°11'1 0.5
2018-May-12 10:43N 38°35' W 090°12'0 0.0
2018-May-12 10:30N 38°35' W 090°12'0 0.3
2018-May-12 09:59N 38°36' W 090°12'0 0.1
2018-May-12 09:25N 38°36' W 090°12'1 1.9
2018-May-12 09:00N 38°36' W 090°11'4 8.7
2018-May-12 08:30N 38°41' W 090°11'2 2.8
2018-May-12 07:57N 38°42' W 090°11'0 0.6
2018-May-12 07:30N 38°42' W 090°11'1 1.0
2018-May-12 07:00N 38°43' W 090°10'1 1.9
2018-May-12 06:30N 38°44' W 090°10'1 2.1
2018-May-12 06:00N 38°45' W 090°09'1 1.1
2018-May-12 05:30N 38°45' W 090°09'0 0.5
2018-May-12 05:00N 38°45' W 090°09'0 0.2
2018-May-12 04:21N 38°45' W 090°09'0 1.4
2018-May-12 04:00N 38°46' W 090°08'1 1.8
2018-May-12 03:30N 38°47' W 090°08'0 0.0
2018-May-12 03:00N 38°47' W 090°08'1 2.1
2018-May-12 02:30N 38°48' W 090°07'4 7.1
2018-May-12 02:00N 38°51' W 090°07'2 3.9
2018-May-12 01:30N 38°52' W 090°09'2 3.5
2018-May-12 01:00N 38°53' W 090°11'3 7.0
2018-May-12 00:30N 38°55' W 090°15'4 7.3
2018-May-12 00:00N 38°56' W 090°19'4 7.7
2018-May-11 23:30N 38°58' W 090°23'4 7.3
2018-May-11 23:00N 38°57' W 090°28'4 7.3
2018-May-11 22:30N 38°54' W 090°31'4 7.1
2018-May-11 22:00N 38°52' W 090°35'3 6.5
2018-May-11 21:30N 38°54' W 090°38'4 7.2
2018-May-11 21:00N 38°57' W 090°40'3 6.0
2018-May-11 20:30N 38°60' W 090°41'0 0.5
2018-May-11 20:00N 39°00' W 090°41'0 0.2
2018-May-11 19:30N 39°00' W 090°41'0 0.1
2018-May-11 19:00N 39°00' W 090°41'0 0.6
2018-May-11 18:30N 39°01' W 090°42'0 0.0
2018-May-11 18:00N 39°01' W 090°42'0 0.2
2018-May-11 17:30N 39°01' W 090°42'2 4.1
2018-May-11 17:00N 39°03' W 090°43'4 5.1
2018-May-11 16:16N 39°06' W 090°41'2 7.2
2018-May-11 16:00N 39°08' W 090°42'  

Dump ship's entire track history